createdAt,value
2022-12-13T00:02:04.223Z,38.65
2022-12-13T00:04:33.583Z,40.78
2022-12-13T00:07:03.149Z,38.48
2022-12-13T00:09:32.912Z,39.42
2022-12-13T00:12:02.366Z,38.55
2022-12-13T00:14:32.798Z,41.33
2022-12-13T00:17:02.869Z,39.83
2022-12-13T00:19:32.756Z,40.55
2022-12-13T00:22:02.460Z,39.63
2022-12-13T00:24:32.344Z,39.70
2022-12-13T00:27:01.959Z,39.35
2022-12-13T00:29:31.763Z,40.67
2022-12-13T00:32:01.719Z,38.28
2022-12-13T00:34:31.708Z,39.05
2022-12-13T00:37:01.262Z,39.73
2022-12-13T00:39:31.042Z,39.95
2022-12-13T00:42:00.427Z,40.85
2022-12-13T00:44:31.281Z,39.27
2022-12-13T00:47:00.476Z,36.35
2022-12-13T00:49:30.348Z,37.48
2022-12-13T00:52:00.196Z,38.13
2022-12-13T00:54:30.451Z,39.85
2022-12-13T00:56:59.687Z,38.00
2022-12-13T00:59:29.384Z,37.88
2022-12-13T01:01:58.589Z,38.00
2022-12-13T01:04:28.126Z,37.65
2022-12-13T01:06:57.338Z,38.38
2022-12-13T01:09:29.804Z,38.85
2022-12-13T01:12:04.293Z,39.35
2022-12-13T01:14:35.797Z,38.05
2022-12-13T01:17:05.253Z,37.63
2022-12-13T01:19:34.794Z,39.08
2022-12-13T01:22:07.174Z,39.15
2022-12-13T01:24:36.883Z,39.38
2022-12-13T01:27:06.464Z,39.90
2022-12-13T01:29:37.404Z,39.15
2022-12-13T01:32:07.112Z,39.18
2022-12-13T01:34:36.587Z,39.15
2022-12-13T01:37:05.811Z,35.85
2022-12-13T01:39:38.018Z,38.17
2022-12-13T01:42:06.657Z,39.17
2022-12-13T01:44:58.887Z,37.80
2022-12-13T01:47:34.355Z,40.10
2022-12-13T01:50:06.781Z,38.30
2022-12-13T01:52:36.340Z,37.30
2022-12-13T01:55:07.786Z,40.05
2022-12-13T01:57:43.766Z,36.77
2022-12-13T02:00:13.319Z,38.40
2022-12-13T02:02:42.751Z,37.48
2022-12-13T02:05:20.497Z,41.23
2022-12-13T02:07:50.240Z,39.13
2022-12-13T02:10:19.596Z,40.05
2022-12-13T02:12:49.005Z,41.63
2022-12-13T02:15:19.986Z,40.38
2022-12-13T02:17:55.652Z,40.98
2022-12-13T02:20:40.221Z,40.70
2022-12-13T02:23:22.461Z,40.17
2022-12-13T02:26:28.423Z,39.00
2022-12-13T02:29:10.278Z,38.45
2022-12-13T02:31:45.257Z,38.13
2022-12-13T02:34:30.274Z,39.33
2022-12-13T02:37:19.446Z,39.18
2022-12-13T02:40:00.712Z,39.83
2022-12-13T02:42:45.088Z,38.83
2022-12-13T02:45:21.539Z,38.55
2022-12-13T02:47:53.498Z,39.33
2022-12-13T02:50:23.413Z,41.15
2022-12-13T02:52:53.808Z,40.43
2022-12-13T02:55:27.944Z,40.92
2022-12-13T02:57:55.337Z,42.65
2022-12-13T03:00:33.838Z,43.45
2022-12-13T03:03:17.488Z,45.73
2022-12-13T03:06:26.332Z,43.80
2022-12-13T03:09:04.721Z,42.83
2022-12-13T03:12:10.173Z,41.92
2022-12-13T03:14:42.827Z,42.38
2022-12-13T03:17:13.870Z,41.77
2022-12-13T03:19:43.306Z,43.50
2022-12-13T03:22:12.558Z,44.35
2022-12-13T03:24:41.830Z,44.85
2022-12-13T03:27:11.093Z,44.33
2022-12-13T03:29:41.867Z,44.00
2022-12-13T03:32:11.100Z,44.70
2022-12-13T03:34:44.910Z,44.13
2022-12-13T03:37:11.734Z,33.17
2022-12-13T03:39:41.114Z,42.95
2022-12-13T03:42:10.353Z,44.30
2022-12-13T03:44:40.025Z,45.35
2022-12-13T03:47:09.241Z,43.38
2022-12-13T03:49:39.081Z,41.40
2022-12-13T03:52:08.493Z,42.35
2022-12-13T03:54:37.724Z,43.48
2022-12-13T03:57:07.012Z,41.95
2022-12-13T03:59:36.268Z,40.75
2022-12-13T04:02:06.123Z,39.73
2022-12-13T04:04:35.609Z,39.63
2022-12-13T04:07:04.844Z,39.35
2022-12-13T04:09:35.775Z,39.48
2022-12-13T04:12:23.198Z,39.60
2022-12-13T04:14:52.446Z,38.23
2022-12-13T04:17:21.684Z,38.92
2022-12-13T04:19:50.897Z,39.08
2022-12-13T04:22:24.794Z,39.27
2022-12-13T04:24:51.282Z,37.28
2022-12-13T04:27:20.584Z,37.67
2022-12-13T04:29:49.848Z,38.00
2022-12-13T04:32:26.892Z,38.08
2022-12-13T04:34:50.183Z,38.98
2022-12-13T04:37:19.806Z,40.45
2022-12-13T04:39:49.175Z,41.63
2022-12-13T04:42:18.470Z,42.33
2022-12-13T04:44:49.893Z,42.62
2022-12-13T04:47:19.329Z,41.73
2022-12-13T04:49:48.579Z,42.83
2022-12-13T04:52:22.640Z,43.95
2022-12-13T04:54:48.791Z,41.85
2022-12-13T04:57:19.844Z,43.02
2022-12-13T04:59:49.075Z,42.78
2022-12-13T05:02:23.651Z,44.85
2022-12-13T05:04:54.303Z,41.85
2022-12-13T05:07:20.530Z,44.10
2022-12-13T05:09:49.771Z,42.43
2022-12-13T05:12:21.944Z,43.28
2022-12-13T05:14:50.272Z,42.43
2022-12-13T05:17:20.291Z,44.95
2022-12-13T05:19:49.701Z,44.73
2022-12-13T05:22:21.072Z,42.62
2022-12-13T05:24:50.620Z,43.00
2022-12-13T05:27:25.356Z,42.13
2022-12-13T05:29:56.168Z,41.15
2022-12-13T05:32:22.613Z,41.90
2022-12-13T05:34:51.854Z,41.92
2022-12-13T05:37:21.799Z,43.20
2022-12-13T05:39:51.026Z,41.70
2022-12-13T05:42:20.584Z,39.98
2022-12-13T05:44:52.267Z,39.78
2022-12-13T05:47:21.649Z,39.35
2022-12-13T05:49:51.957Z,40.55
2022-12-13T05:52:30.625Z,40.90
2022-12-13T05:55:00.996Z,41.30
2022-12-13T05:57:30.301Z,41.37
2022-12-13T05:59:59.528Z,42.27
2022-12-13T06:02:29.666Z,41.85
2022-12-13T06:04:59.059Z,42.33
2022-12-13T06:07:28.837Z,42.78
2022-12-13T06:10:09.767Z,43.42
2022-12-13T06:12:32.355Z,42.23
2022-12-13T06:15:00.992Z,42.80
2022-12-13T06:17:35.479Z,41.48
2022-12-13T06:20:23.333Z,42.67
2022-12-13T06:22:37.652Z,42.13
2022-12-13T06:25:07.246Z,43.17
2022-12-13T06:27:38.337Z,41.08
2022-12-13T06:30:08.206Z,42.13
2022-12-13T06:32:43.775Z,42.83
2022-12-13T06:35:28.008Z,42.15
2022-12-13T06:37:41.078Z,42.30
2022-12-13T06:40:11.236Z,42.70
2022-12-13T06:42:40.803Z,43.10
2022-12-13T06:45:10.565Z,42.33
2022-12-13T06:47:39.800Z,42.05
2022-12-13T06:50:09.939Z,42.43
2022-12-13T06:52:39.239Z,41.70
2022-12-13T06:55:09.327Z,42.58
2022-12-13T06:57:40.753Z,41.35
2022-12-13T07:00:11.088Z,42.67
2022-12-13T07:02:40.642Z,43.02
2022-12-13T07:05:11.406Z,43.80
2022-12-13T07:07:40.987Z,45.52
2022-12-13T07:10:12.708Z,46.08
2022-12-13T07:12:41.930Z,35.43
2022-12-13T07:15:11.852Z,45.40
2022-12-13T07:17:42.911Z,44.20
2022-12-13T07:20:14.708Z,44.30
2022-12-13T07:22:48.471Z,44.55
2022-12-13T07:25:27.986Z,46.87
2022-12-13T07:27:46.895Z,47.70
2022-12-13T07:30:16.358Z,44.77
2022-12-13T07:32:45.770Z,46.00
2022-12-13T07:35:15.150Z,45.10
2022-12-13T07:37:44.656Z,48.92
2022-12-13T07:40:14.133Z,49.53
2022-12-13T07:42:43.371Z,49.38
2022-12-13T07:45:12.805Z,46.00
2022-12-13T07:47:42.490Z,47.53
2022-12-13T07:50:24.175Z,47.38
2022-12-13T07:52:43.249Z,48.25
2022-12-13T07:55:13.571Z,46.55
2022-12-13T07:57:42.821Z,48.65
2022-12-13T08:00:13.178Z,48.20
2022-12-13T08:02:42.524Z,48.73
2022-12-13T08:05:26.051Z,49.67
2022-12-13T08:07:43.295Z,50.45
2022-12-13T08:10:12.600Z,48.20
2022-12-13T08:12:41.978Z,50.63
2022-12-13T08:15:14.311Z,49.00
2022-12-13T08:17:44.095Z,49.13
2022-12-13T08:20:13.333Z,48.60
2022-12-13T08:22:44.717Z,50.52
2022-12-13T08:25:15.951Z,47.67
2022-12-13T08:27:45.447Z,49.10
2022-12-13T08:30:20.492Z,48.70
2022-12-13T08:32:46.163Z,49.77
2022-12-13T08:35:15.928Z,49.27
2022-12-13T08:37:45.536Z,49.05
2022-12-13T08:40:14.757Z,47.27
2022-12-13T08:42:44.214Z,47.85
2022-12-13T08:45:13.712Z,47.83
2022-12-13T08:47:43.260Z,48.95
2022-12-13T08:50:13.220Z,49.50
2022-12-13T08:52:44.428Z,49.98
2022-12-13T08:55:15.435Z,52.55
2022-12-13T08:57:45.395Z,49.30
2022-12-13T09:00:17.237Z,49.55
2022-12-13T09:02:46.812Z,49.75
2022-12-13T09:05:34.167Z,49.30
2022-12-13T09:07:47.663Z,48.08
2022-12-13T09:10:27.098Z,50.48
2022-12-13T09:12:47.982Z,49.45
2022-12-13T09:15:22.249Z,49.38
2022-12-13T09:17:52.631Z,47.30
2022-12-13T09:20:28.694Z,49.40
2022-12-13T09:22:51.373Z,48.42
2022-12-13T09:25:24.385Z,47.73
2022-12-13T09:27:52.252Z,44.42
2022-12-13T09:30:21.509Z,44.08
2022-12-13T09:32:51.109Z,44.90
2022-12-13T09:35:20.347Z,42.88
2022-12-13T09:37:49.599Z,42.38
2022-12-13T09:40:27.010Z,41.42
2022-12-13T09:43:12.453Z,40.80
2022-12-13T09:45:32.002Z,39.55
2022-12-13T09:48:04.747Z,37.60
2022-12-13T09:53:12.208Z,38.10
2022-12-13T09:55:47.055Z,35.48
2022-12-13T09:58:32.090Z,32.58
2022-12-13T10:01:01.443Z,30.02
2022-12-13T10:03:30.797Z,29.48
2022-12-13T10:06:01.888Z,29.23
2022-12-13T10:08:37.058Z,29.35
2022-12-13T10:11:06.405Z,29.20
2022-12-13T10:13:51.415Z,27.17
2022-12-13T10:16:35.863Z,27.07
2022-12-13T10:19:02.217Z,27.10
2022-12-13T10:21:43.771Z,27.15
2022-12-13T10:24:28.954Z,27.17
2022-12-13T10:26:53.524Z,27.15
2022-12-13T10:29:23.123Z,26.87
2022-12-13T10:31:53.659Z,25.80
2022-12-13T10:34:30.488Z,26.62
2022-12-13T10:37:00.120Z,26.80
2022-12-13T10:39:43.798Z,26.60
2022-12-13T10:42:22.486Z,26.95
2022-12-13T10:44:54.395Z,27.07
2022-12-13T10:47:25.683Z,25.20
2022-12-13T10:49:59.807Z,25.82
2022-12-13T10:52:43.935Z,25.80
2022-12-13T10:55:28.833Z,24.00
2022-12-13T10:58:01.336Z,25.70
2022-12-13T11:05:46.470Z,25.30
2022-12-13T11:08:26.078Z,26.87
2022-12-13T11:10:58.145Z,25.80
2022-12-13T11:13:31.494Z,26.90
2022-12-13T11:16:01.721Z,26.65
2022-12-13T11:18:37.225Z,27.15
2022-12-13T11:21:07.966Z,27.15
2022-12-13T11:23:39.274Z,27.17
2022-12-13T11:26:14.534Z,27.70
2022-12-13T11:29:03.607Z,26.80
2022-12-13T11:31:52.723Z,26.12
2022-12-13T11:34:40.021Z,26.17
2022-12-13T11:37:29.538Z,25.35
2022-12-13T11:40:20.486Z,25.92
2022-12-13T11:43:05.350Z,26.27
2022-12-13T11:45:46.780Z,27.42
2022-12-13T11:48:21.633Z,26.85
2022-12-13T11:50:53.482Z,27.15
2022-12-13T11:53:54.748Z,26.60
2022-12-13T11:56:29.422Z,25.97
2022-12-13T11:59:27.464Z,26.85
2022-12-13T12:02:04.947Z,26.77
2022-12-13T12:05:00.022Z,27.10
2022-12-13T12:07:58.522Z,25.68
2022-12-13T12:10:29.865Z,25.45
2022-12-13T12:13:17.334Z,26.97
2022-12-13T12:15:58.704Z,30.57
2022-12-13T12:18:28.844Z,28.45
2022-12-13T12:21:07.489Z,28.32
2022-12-13T12:23:52.650Z,27.37
2022-12-13T12:29:12.391Z,27.45
2022-12-13T12:31:51.385Z,27.35
2022-12-13T12:34:40.685Z,28.15
2022-12-13T12:37:28.717Z,27.70
2022-12-13T12:40:35.714Z,28.80
2022-12-13T12:43:18.083Z,27.95
2022-12-13T12:45:57.754Z,28.80
2022-12-13T12:49:01.906Z,27.82
2022-12-13T12:51:28.935Z,28.32
2022-12-13T12:54:04.458Z,27.93
2022-12-13T12:56:43.349Z,27.75
2022-12-13T12:59:24.911Z,28.02
2022-12-13T13:02:03.515Z,29.25
2022-12-13T13:04:45.509Z,28.17
2022-12-13T13:07:23.341Z,28.50
2022-12-13T13:09:54.969Z,27.32
2022-12-13T13:14:55.300Z,27.90
2022-12-13T13:17:30.530Z,29.50
2022-12-13T13:20:23.146Z,29.02
2022-12-13T13:23:17.478Z,28.80
2022-12-13T13:25:35.215Z,29.45
2022-12-13T13:28:13.960Z,27.52
2022-12-13T13:31:09.295Z,27.15
2022-12-13T13:33:49.958Z,28.32
2022-12-13T13:36:46.018Z,28.12
2022-12-13T13:39:19.120Z,29.95
2022-12-13T13:41:51.647Z,34.45
2022-12-13T13:44:33.303Z,70.05
2022-12-13T13:47:24.309Z,36.27
2022-12-13T13:50:11.482Z,38.58
2022-12-13T13:53:00.893Z,31.97
2022-12-13T13:55:39.117Z,49.85
2022-12-13T13:58:43.907Z,41.10
2022-12-13T14:01:24.962Z,30.48
2022-12-13T14:04:24.337Z,31.77
2022-12-13T14:07:09.543Z,29.23
2022-12-13T14:10:01.050Z,29.55
2022-12-13T14:12:35.977Z,30.85
2022-12-13T14:15:26.350Z,30.62
2022-12-13T14:18:21.322Z,29.48
2022-12-13T14:21:05.128Z,28.73
2022-12-13T14:23:58.697Z,30.32
2022-12-13T14:26:51.607Z,29.45
2022-12-13T14:29:27.202Z,28.57
2022-12-13T14:31:57.014Z,29.35
2022-12-13T14:34:31.095Z,29.90
2022-12-13T14:37:05.975Z,30.10
2022-12-13T14:39:35.388Z,29.90
2022-12-13T14:42:08.885Z,30.62
2022-12-13T14:44:38.193Z,28.07
2022-12-13T14:47:09.009Z,31.42
2022-12-13T14:49:40.365Z,30.25
2022-12-13T14:52:30.662Z,29.63
2022-12-13T14:55:04.241Z,29.60
2022-12-13T14:57:35.508Z,29.85
2022-12-13T15:00:32.687Z,30.27
2022-12-13T15:03:04.121Z,29.48
2022-12-13T15:05:47.163Z,30.47
2022-12-13T15:08:16.633Z,30.37
2022-12-13T15:13:25.965Z,28.35
2022-12-13T15:16:10.722Z,33.15
2022-12-13T15:18:36.085Z,42.65
2022-12-13T15:21:16.069Z,42.90
2022-12-13T15:23:48.781Z,37.83
2022-12-13T15:26:29.047Z,32.00
2022-12-13T15:28:57.689Z,32.53
2022-12-13T15:31:34.999Z,33.83
2022-12-13T15:34:31.202Z,32.15
2022-12-13T15:37:28.342Z,33.20
2022-12-13T15:39:48.220Z,33.63
2022-12-13T15:42:23.907Z,33.53
2022-12-13T15:44:55.446Z,34.67
2022-12-13T15:47:28.172Z,34.43
2022-12-13T15:50:05.948Z,32.17
2022-12-13T15:52:38.133Z,33.20
2022-12-13T16:00:34.475Z,30.35
2022-12-13T16:03:15.282Z,32.00
2022-12-13T16:05:59.254Z,32.05
2022-12-13T16:08:33.706Z,32.15
2022-12-13T16:11:03.624Z,34.67
2022-12-13T16:13:37.342Z,34.95
2022-12-13T16:16:28.485Z,35.98
2022-12-13T16:18:59.599Z,35.83
2022-12-13T16:21:30.281Z,36.25
2022-12-13T16:23:59.819Z,36.42
2022-12-13T16:26:30.070Z,37.95
2022-12-13T16:29:00.063Z,36.90
2022-12-13T16:31:32.826Z,38.67
2022-12-13T16:34:03.046Z,39.00
2022-12-13T16:36:32.651Z,36.98
2022-12-13T16:39:03.079Z,37.70
2022-12-13T16:41:34.379Z,36.63
2022-12-13T16:44:04.945Z,37.25
2022-12-13T16:47:15.259Z,36.95
2022-12-13T16:49:08.515Z,37.98
2022-12-13T16:54:06.677Z,36.03
2022-12-13T16:56:35.910Z,35.92
2022-12-13T16:59:05.134Z,37.00
2022-12-13T17:01:34.438Z,34.30
2022-12-13T17:04:10.946Z,34.92
2022-12-13T17:06:34.638Z,34.95
2022-12-13T17:09:03.875Z,39.92
2022-12-13T17:11:35.097Z,38.78
2022-12-13T17:14:05.990Z,35.30
2022-12-13T17:16:35.552Z,33.63
2022-12-13T17:19:05.437Z,34.58
2022-12-13T17:21:35.418Z,31.57
2022-12-13T17:24:05.275Z,32.20
2022-12-13T17:26:35.121Z,32.03
2022-12-13T17:29:05.048Z,31.07
2022-12-13T17:31:36.161Z,31.75
2022-12-13T17:34:05.990Z,30.15
2022-12-13T17:36:35.229Z,30.97
2022-12-13T17:39:04.850Z,30.12
2022-12-13T17:41:34.218Z,31.40
2022-12-13T17:44:03.482Z,29.70
2022-12-13T17:46:34.532Z,28.12
2022-12-13T17:49:04.626Z,28.63
2022-12-13T17:51:34.076Z,28.75
2022-12-13T17:54:03.768Z,27.15
2022-12-13T17:56:33.090Z,27.73
2022-12-13T17:59:03.384Z,27.80
2022-12-13T18:01:32.698Z,28.98
2022-12-13T18:04:02.027Z,27.42
2022-12-13T18:06:32.031Z,27.85
2022-12-13T18:09:02.007Z,27.62
2022-12-13T18:11:33.635Z,27.85
2022-12-13T18:14:04.821Z,28.17
2022-12-13T18:16:38.022Z,27.22
2022-12-13T18:19:07.947Z,27.73
2022-12-13T18:21:38.106Z,26.55
2022-12-13T18:24:07.991Z,27.67
2022-12-13T18:26:37.543Z,27.20
2022-12-13T18:29:06.874Z,26.60
2022-12-13T18:31:36.266Z,27.82
2022-12-13T18:34:05.905Z,26.85
2022-12-13T18:36:35.467Z,27.48
2022-12-13T18:39:05.474Z,26.48
2022-12-13T18:41:34.686Z,28.15
2022-12-13T18:44:06.751Z,27.77
2022-12-13T18:46:38.389Z,30.08
2022-12-13T18:49:07.678Z,31.15
2022-12-13T18:51:37.997Z,33.20
2022-12-13T18:54:07.823Z,30.17
2022-12-13T18:56:37.707Z,29.55
2022-12-13T18:59:07.018Z,30.57
2022-12-13T19:01:36.462Z,28.95
2022-12-13T19:04:06.566Z,30.25
2022-12-13T19:06:35.924Z,28.62
2022-12-13T19:09:05.252Z,29.12
2022-12-13T19:11:34.825Z,28.38
2022-12-13T19:14:04.443Z,28.35
2022-12-13T19:16:34.398Z,29.07
2022-12-13T19:19:03.830Z,28.25
2022-12-13T19:21:33.237Z,29.40
2022-12-13T19:24:02.560Z,27.32
2022-12-13T19:26:31.866Z,26.62
2022-12-13T19:29:02.200Z,28.17
2022-12-13T19:31:32.783Z,26.80
2022-12-13T19:34:03.667Z,30.40
2022-12-13T19:36:33.956Z,32.17
2022-12-13T19:39:03.259Z,30.48
2022-12-13T19:41:33.632Z,36.23
2022-12-13T19:44:04.663Z,38.30
2022-12-13T19:46:34.830Z,30.90
2022-12-13T19:49:04.516Z,28.05
2022-12-13T19:51:39.242Z,27.07
2022-12-13T19:54:05.045Z,26.60
2022-12-13T19:56:34.742Z,26.73
2022-12-13T19:59:04.081Z,26.97
2022-12-13T20:01:33.655Z,26.15
2022-12-13T20:04:03.031Z,26.68
2022-12-13T20:06:32.466Z,27.27
2022-12-13T20:09:02.393Z,26.95
2022-12-13T20:11:32.149Z,27.32
2022-12-13T20:14:01.767Z,27.55
2022-12-13T20:16:31.394Z,28.17
2022-12-13T20:19:03.015Z,28.40
2022-12-13T20:21:32.457Z,29.45
2022-12-13T20:24:03.819Z,28.85
2022-12-13T20:26:33.903Z,28.45
2022-12-13T20:29:03.788Z,29.87
2022-12-13T20:31:34.508Z,30.40
2022-12-13T20:34:07.756Z,30.60
2022-12-13T20:36:37.719Z,31.35
2022-12-13T20:39:08.116Z,31.42
2022-12-13T20:41:38.020Z,29.35
2022-12-13T20:44:09.076Z,30.75
2022-12-13T20:46:38.764Z,29.75
2022-12-13T20:49:09.951Z,29.37
2022-12-13T20:51:41.693Z,27.95
2022-12-13T20:54:10.941Z,28.45
2022-12-13T20:56:40.962Z,28.05
2022-12-13T20:59:12.945Z,27.87
2022-12-13T21:01:42.942Z,27.55
2022-12-13T21:04:12.642Z,27.58
2022-12-13T21:06:43.245Z,26.93
2022-12-13T21:09:13.267Z,28.65
2022-12-13T21:11:47.297Z,27.35
2022-12-13T21:14:23.279Z,26.25
2022-12-13T21:17:00.512Z,26.48
2022-12-13T21:19:39.114Z,26.80
2022-12-13T21:22:04.241Z,26.00
2022-12-13T21:24:33.536Z,26.02
2022-12-13T21:27:03.001Z,26.12
2022-12-13T21:29:32.273Z,25.15
2022-12-13T21:32:01.950Z,26.12
2022-12-13T21:34:31.234Z,25.65
2022-12-13T21:37:00.693Z,25.50
2022-12-13T21:39:30.958Z,24.20
2022-12-13T21:42:00.748Z,24.45
2022-12-13T21:44:29.978Z,23.38
2022-12-13T21:47:14.831Z,23.65
2022-12-13T21:49:30.745Z,23.27
2022-12-13T21:52:00.301Z,23.87
2022-12-13T21:54:29.523Z,23.22
2022-12-13T21:57:16.923Z,22.45
2022-12-13T21:59:46.261Z,23.55
2022-12-13T22:02:19.002Z,22.48
2022-12-13T22:04:56.921Z,21.90
2022-12-13T22:07:28.766Z,22.87
2022-12-13T22:09:59.332Z,22.75
2022-12-13T22:12:41.478Z,20.95
2022-12-13T22:15:12.968Z,22.32
2022-12-13T22:17:43.351Z,21.25
2022-12-13T22:20:15.360Z,22.75
2022-12-13T22:25:13.743Z,22.02
2022-12-13T22:27:43.174Z,22.35
2022-12-13T22:30:14.925Z,22.67
2022-12-13T22:32:44.329Z,23.35
2022-12-13T22:35:14.642Z,21.80
2022-12-13T22:37:44.255Z,22.32
2022-12-13T22:40:15.215Z,24.77
2022-12-13T22:42:48.337Z,23.10
2022-12-13T22:45:15.858Z,22.42
2022-12-13T22:47:45.112Z,23.92
2022-12-13T22:50:14.669Z,23.75
2022-12-13T22:52:44.255Z,23.07
2022-12-13T22:55:13.521Z,22.37
2022-12-13T22:57:43.438Z,21.10
2022-12-13T23:00:15.061Z,21.37
2022-12-13T23:02:44.326Z,19.25
2022-12-13T23:05:13.817Z,19.57
2022-12-13T23:07:43.346Z,20.52
2022-12-13T23:10:15.937Z,19.17
2022-12-13T23:13:03.899Z,20.90
2022-12-13T23:15:36.307Z,20.20
2022-12-13T23:18:06.494Z,20.97
2022-12-13T23:20:35.904Z,19.87
2022-12-13T23:23:06.943Z,20.00
2022-12-13T23:25:36.177Z,20.25
2022-12-13T23:28:06.051Z,18.50
2022-12-13T23:30:37.036Z,18.70
2022-12-13T23:33:07.338Z,21.12
2022-12-13T23:35:36.566Z,22.25
2022-12-13T23:38:05.786Z,22.05
2022-12-13T23:40:35.043Z,19.80
2022-12-13T23:43:04.418Z,18.55
2022-12-13T23:45:33.652Z,20.48
2022-12-13T23:48:03.212Z,17.98
2022-12-13T23:50:32.462Z,18.00
2022-12-13T23:53:01.999Z,18.25
2022-12-13T23:55:31.262Z,18.62
2022-12-13T23:58:00.730Z,18.73
